sensor_id;sensor_type;location;lat;lon;timestamp;P1;durP1;ratioP1;P2;durP2;ratioP2
68938;SDS011;59064;45.294;11.816;2024-02-21T00:01:55;58.40;;;34.50;;
68938;SDS011;59064;45.294;11.816;2024-02-21T00:04:21;56.00;;;35.10;;
68938;SDS011;59064;45.294;11.816;2024-02-21T00:06:46;57.00;;;36.60;;
68938;SDS011;59064;45.294;11.816;2024-02-21T00:09:12;60.70;;;38.10;;
68938;SDS011;59064;45.294;11.816;2024-02-21T00:11:37;57.90;;;35.90;;
68938;SDS011;59064;45.294;11.816;2024-02-21T00:14:03;59.70;;;37.10;;
68938;SDS011;59064;45.294;11.816;2024-02-21T00:16:29;58.30;;;33.70;;
68938;SDS011;59064;45.294;11.816;2024-02-21T00:18:55;60.10;;;37.40;;
68938;SDS011;59064;45.294;11.816;2024-02-21T00:21:20;65.40;;;37.00;;
68938;SDS011;59064;45.294;11.816;2024-02-21T00:23:46;67.70;;;34.90;;
68938;SDS011;59064;45.294;11.816;2024-02-21T00:26:12;75.70;;;44.20;;
68938;SDS011;59064;45.294;11.816;2024-02-21T00:28:38;55.10;;;29.70;;
68938;SDS011;59064;45.294;11.816;2024-02-21T00:31:04;68.50;;;35.30;;
68938;SDS011;59064;45.294;11.816;2024-02-21T00:33:30;73.20;;;41.00;;
68938;SDS011;59064;45.294;11.816;2024-02-21T00:35:55;78.30;;;47.30;;
68938;SDS011;59064;45.294;11.816;2024-02-21T00:38:21;80.60;;;46.00;;
68938;SDS011;59064;45.294;11.816;2024-02-21T00:40:46;82.40;;;46.50;;
68938;SDS011;59064;45.294;11.816;2024-02-21T00:43:12;95.00;;;54.90;;
68938;SDS011;59064;45.294;11.816;2024-02-21T00:45:38;83.80;;;47.70;;
68938;SDS011;59064;45.294;11.816;2024-02-21T00:48:03;87.20;;;50.20;;
68938;SDS011;59064;45.294;11.816;2024-02-21T00:50:29;80.20;;;44.60;;
68938;SDS011;59064;45.294;11.816;2024-02-21T00:52:55;83.70;;;50.00;;
68938;SDS011;59064;45.294;11.816;2024-02-21T00:55:20;91.20;;;52.80;;
68938;SDS011;59064;45.294;11.816;2024-02-21T00:57:46;89.90;;;55.10;;
68938;SDS011;59064;45.294;11.816;2024-02-21T01:00:12;96.70;;;55.70;;
68938;SDS011;59064;45.294;11.816;2024-02-21T01:02:37;101.90;;;58.80;;
68938;SDS011;59064;45.294;11.816;2024-02-21T01:05:03;90.20;;;51.20;;
68938;SDS011;59064;45.294;11.816;2024-02-21T01:07:29;100.80;;;56.30;;
68938;SDS011;59064;45.294;11.816;2024-02-21T01:09:54;102.90;;;60.00;;
68938;SDS011;59064;45.294;11.816;2024-02-21T01:12:20;88.90;;;52.60;;
68938;SDS011;59064;45.294;11.816;2024-02-21T01:14:45;98.70;;;59.30;;
68938;SDS011;59064;45.294;11.816;2024-02-21T01:17:11;92.90;;;54.20;;
68938;SDS011;59064;45.294;11.816;2024-02-21T01:19:37;106.70;;;57.60;;
68938;SDS011;59064;45.294;11.816;2024-02-21T01:22:04;101.00;;;59.40;;
68938;SDS011;59064;45.294;11.816;2024-02-21T01:24:29;96.40;;;56.60;;
68938;SDS011;59064;45.294;11.816;2024-02-21T01:26:55;94.60;;;56.00;;
68938;SDS011;59064;45.294;11.816;2024-02-21T01:29:20;101.90;;;61.20;;
68938;SDS011;59064;45.294;11.816;2024-02-21T01:31:46;87.60;;;51.60;;
68938;SDS011;59064;45.294;11.816;2024-02-21T01:34:12;89.80;;;52.20;;
68938;SDS011;59064;45.294;11.816;2024-02-21T01:36:38;92.60;;;55.60;;
68938;SDS011;59064;45.294;11.816;2024-02-21T01:39:04;97.30;;;59.10;;
68938;SDS011;59064;45.294;11.816;2024-02-21T01:41:30;95.60;;;57.30;;
68938;SDS011;59064;45.294;11.816;2024-02-21T01:43:56;91.40;;;53.50;;
68938;SDS011;59064;45.294;11.816;2024-02-21T01:46:22;94.20;;;56.30;;
68938;SDS011;59064;45.294;11.816;2024-02-21T01:48:48;100.20;;;58.50;;
68938;SDS011;59064;45.294;11.816;2024-02-21T01:51:13;101.20;;;59.80;;
68938;SDS011;59064;45.294;11.816;2024-02-21T01:53:42;103.60;;;60.60;;
68938;SDS011;59064;45.294;11.816;2024-02-21T01:56:08;98.80;;;58.90;;
68938;SDS011;59064;45.294;11.816;2024-02-21T01:58:35;97.80;;;58.20;;
68938;SDS011;59064;45.294;11.816;2024-02-21T02:01:02;103.50;;;58.40;;
68938;SDS011;59064;45.294;11.816;2024-02-21T02:03:28;103.30;;;59.60;;
68938;SDS011;59064;45.294;11.816;2024-02-21T02:05:55;105.20;;;62.00;;
68938;SDS011;59064;45.294;11.816;2024-02-21T02:08:20;111.40;;;65.40;;
68938;SDS011;59064;45.294;11.816;2024-02-21T02:10:49;105.70;;;61.30;;
68938;SDS011;59064;45.294;11.816;2024-02-21T02:13:15;103.60;;;60.00;;
68938;SDS011;59064;45.294;11.816;2024-02-21T02:18:07;111.40;;;63.80;;
68938;SDS011;59064;45.294;11.816;2024-02-21T02:20:33;102.50;;;60.30;;
68938;SDS011;59064;45.294;11.816;2024-02-21T02:22:59;102.10;;;60.30;;
68938;SDS011;59064;45.294;11.816;2024-02-21T02:25:27;102.40;;;59.40;;
68938;SDS011;59064;45.294;11.816;2024-02-21T02:27:53;92.20;;;50.30;;
68938;SDS011;59064;45.294;11.816;2024-02-21T02:30:19;95.70;;;56.50;;
68938;SDS011;59064;45.294;11.816;2024-02-21T02:32:45;86.30;;;52.70;;
68938;SDS011;59064;45.294;11.816;2024-02-21T02:35:14;93.10;;;52.70;;
68938;SDS011;59064;45.294;11.816;2024-02-21T02:37:39;81.40;;;45.50;;
68938;SDS011;59064;45.294;11.816;2024-02-21T02:40:08;89.40;;;49.40;;
68938;SDS011;59064;45.294;11.816;2024-02-21T02:42:33;83.00;;;43.80;;
68938;SDS011;59064;45.294;11.816;2024-02-21T02:44:59;76.90;;;43.80;;
68938;SDS011;59064;45.294;11.816;2024-02-21T02:47:27;72.00;;;39.30;;
68938;SDS011;59064;45.294;11.816;2024-02-21T02:49:53;81.20;;;46.80;;
68938;SDS011;59064;45.294;11.816;2024-02-21T02:52:18;82.20;;;46.70;;
68938;SDS011;59064;45.294;11.816;2024-02-21T02:54:44;79.90;;;43.30;;
68938;SDS011;59064;45.294;11.816;2024-02-21T02:57:10;77.60;;;44.00;;
68938;SDS011;59064;45.294;11.816;2024-02-21T02:59:35;81.00;;;45.50;;
68938;SDS011;59064;45.294;11.816;2024-02-21T03:02:01;76.60;;;44.50;;
68938;SDS011;59064;45.294;11.816;2024-02-21T03:04:26;79.70;;;44.30;;
68938;SDS011;59064;45.294;11.816;2024-02-21T03:06:51;78.80;;;45.70;;
68938;SDS011;59064;45.294;11.816;2024-02-21T03:09:17;81.40;;;46.60;;
68938;SDS011;59064;45.294;11.816;2024-02-21T03:11:43;75.70;;;43.60;;
68938;SDS011;59064;45.294;11.816;2024-02-21T03:14:09;77.10;;;44.30;;
68938;SDS011;59064;45.294;11.816;2024-02-21T03:16:35;77.00;;;46.30;;
68938;SDS011;59064;45.294;11.816;2024-02-21T03:19:01;75.80;;;45.00;;
68938;SDS011;59064;45.294;11.816;2024-02-21T03:21:26;77.30;;;43.90;;
68938;SDS011;59064;45.294;11.816;2024-02-21T03:23:52;76.30;;;44.30;;
68938;SDS011;59064;45.294;11.816;2024-02-21T03:26:17;71.10;;;39.30;;
68938;SDS011;59064;45.294;11.816;2024-02-21T03:28:43;69.50;;;40.20;;
68938;SDS011;59064;45.294;11.816;2024-02-21T03:31:11;69.10;;;40.10;;
68938;SDS011;59064;45.294;11.816;2024-02-21T03:33:38;67.70;;;40.50;;
68938;SDS011;59064;45.294;11.816;2024-02-21T03:36:05;76.20;;;41.80;;
68938;SDS011;59064;45.294;11.816;2024-02-21T03:38:31;68.40;;;40.00;;
68938;SDS011;59064;45.294;11.816;2024-02-21T03:40:56;73.00;;;42.40;;
68938;SDS011;59064;45.294;11.816;2024-02-21T03:43:22;73.90;;;43.90;;
68938;SDS011;59064;45.294;11.816;2024-02-21T03:45:47;76.30;;;45.30;;
68938;SDS011;59064;45.294;11.816;2024-02-21T03:48:13;72.90;;;42.90;;
68938;SDS011;59064;45.294;11.816;2024-02-21T03:50:38;65.10;;;39.70;;
68938;SDS011;59064;45.294;11.816;2024-02-21T03:53:04;71.90;;;40.00;;
68938;SDS011;59064;45.294;11.816;2024-02-21T03:55:30;68.60;;;40.10;;
68938;SDS011;59064;45.294;11.816;2024-02-21T03:57:55;67.60;;;39.50;;
68938;SDS011;59064;45.294;11.816;2024-02-21T04:00:21;68.40;;;40.90;;
68938;SDS011;59064;45.294;11.816;2024-02-21T04:02:48;69.90;;;39.80;;
68938;SDS011;59064;45.294;11.816;2024-02-21T04:05:15;66.50;;;40.00;;
68938;SDS011;59064;45.294;11.816;2024-02-21T04:07:41;64.40;;;39.20;;
68938;SDS011;59064;45.294;11.816;2024-02-21T04:10:07;68.50;;;39.60;;
68938;SDS011;59064;45.294;11.816;2024-02-21T04:12:33;62.80;;;37.50;;
68938;SDS011;59064;45.294;11.816;2024-02-21T04:14:58;62.70;;;37.30;;
68938;SDS011;59064;45.294;11.816;2024-02-21T04:17:24;62.80;;;37.70;;
68938;SDS011;59064;45.294;11.816;2024-02-21T04:19:49;60.80;;;36.70;;
68938;SDS011;59064;45.294;11.816;2024-02-21T04:22:15;59.00;;;35.90;;
68938;SDS011;59064;45.294;11.816;2024-02-21T04:24:41;58.30;;;35.70;;
68938;SDS011;59064;45.294;11.816;2024-02-21T04:27:06;59.20;;;34.80;;
68938;SDS011;59064;45.294;11.816;2024-02-21T04:29:32;53.50;;;34.30;;
68938;SDS011;59064;45.294;11.816;2024-02-21T04:31:58;56.20;;;35.00;;
68938;SDS011;59064;45.294;11.816;2024-02-21T04:34:23;57.90;;;34.50;;
68938;SDS011;59064;45.294;11.816;2024-02-21T04:36:49;57.80;;;34.30;;
68938;SDS011;59064;45.294;11.816;2024-02-21T04:39:14;57.70;;;34.60;;
68938;SDS011;59064;45.294;11.816;2024-02-21T04:41:40;57.30;;;34.00;;
68938;SDS011;59064;45.294;11.816;2024-02-21T04:44:05;56.80;;;32.60;;
68938;SDS011;59064;45.294;11.816;2024-02-21T04:46:31;51.50;;;32.60;;
68938;SDS011;59064;45.294;11.816;2024-02-21T04:48:56;55.10;;;32.50;;
68938;SDS011;59064;45.294;11.816;2024-02-21T04:51:22;53.70;;;33.20;;
68938;SDS011;59064;45.294;11.816;2024-02-21T04:53:48;55.10;;;33.10;;
68938;SDS011;59064;45.294;11.816;2024-02-21T04:56:13;54.40;;;32.60;;
68938;SDS011;59064;45.294;11.816;2024-02-21T04:58:39;48.90;;;31.70;;
68938;SDS011;59064;45.294;11.816;2024-02-21T05:01:04;51.50;;;31.30;;
68938;SDS011;59064;45.294;11.816;2024-02-21T05:03:30;46.40;;;28.60;;
68938;SDS011;59064;45.294;11.816;2024-02-21T05:05:55;52.20;;;31.40;;
68938;SDS011;59064;45.294;11.816;2024-02-21T05:08:21;54.80;;;31.80;;
68938;SDS011;59064;45.294;11.816;2024-02-21T05:10:47;52.30;;;32.20;;
68938;SDS011;59064;45.294;11.816;2024-02-21T05:13:12;51.40;;;31.00;;
68938;SDS011;59064;45.294;11.816;2024-02-21T05:15:38;52.80;;;33.50;;
68938;SDS011;59064;45.294;11.816;2024-02-21T05:18:03;55.10;;;33.10;;
68938;SDS011;59064;45.294;11.816;2024-02-21T05:20:29;52.90;;;31.10;;
68938;SDS011;59064;45.294;11.816;2024-02-21T05:22:54;48.90;;;29.10;;
68938;SDS011;59064;45.294;11.816;2024-02-21T05:25:20;53.20;;;31.20;;
68938;SDS011;59064;45.294;11.816;2024-02-21T05:27:45;53.20;;;32.70;;
68938;SDS011;59064;45.294;11.816;2024-02-21T05:30:14;50.10;;;29.90;;
68938;SDS011;59064;45.294;11.816;2024-02-21T05:32:40;51.30;;;30.40;;
68938;SDS011;59064;45.294;11.816;2024-02-21T05:35:05;52.90;;;31.90;;
68938;SDS011;59064;45.294;11.816;2024-02-21T05:37:31;54.70;;;33.40;;
68938;SDS011;59064;45.294;11.816;2024-02-21T05:39:56;50.90;;;31.20;;
68938;SDS011;59064;45.294;11.816;2024-02-21T05:42:22;51.10;;;32.50;;
68938;SDS011;59064;45.294;11.816;2024-02-21T05:44:47;47.70;;;29.30;;
68938;SDS011;59064;45.294;11.816;2024-02-21T05:47:13;46.60;;;28.90;;
68938;SDS011;59064;45.294;11.816;2024-02-21T05:49:40;46.80;;;29.80;;
68938;SDS011;59064;45.294;11.816;2024-02-21T05:52:05;47.70;;;29.30;;
68938;SDS011;59064;45.294;11.816;2024-02-21T05:54:32;43.30;;;25.80;;
68938;SDS011;59064;45.294;11.816;2024-02-21T05:56:57;43.90;;;27.00;;
68938;SDS011;59064;45.294;11.816;2024-02-21T05:59:23;44.70;;;27.70;;
68938;SDS011;59064;45.294;11.816;2024-02-21T06:01:55;45.40;;;27.00;;
68938;SDS011;59064;45.294;11.816;2024-02-21T06:04:22;41.40;;;26.30;;
68938;SDS011;59064;45.294;11.816;2024-02-21T06:06:48;44.20;;;26.40;;
68938;SDS011;59064;45.294;11.816;2024-02-21T06:09:13;43.70;;;24.50;;
68938;SDS011;59064;45.294;11.816;2024-02-21T06:11:39;45.80;;;26.70;;
68938;SDS011;59064;45.294;11.816;2024-02-21T06:14:04;45.80;;;26.80;;
68938;SDS011;59064;45.294;11.816;2024-02-21T06:16:30;44.20;;;25.70;;
68938;SDS011;59064;45.294;11.816;2024-02-21T06:18:56;45.20;;;24.10;;
68938;SDS011;59064;45.294;11.816;2024-02-21T06:21:21;39.90;;;24.00;;
68938;SDS011;59064;45.294;11.816;2024-02-21T06:23:46;38.40;;;24.20;;
68938;SDS011;59064;45.294;11.816;2024-02-21T06:26:12;43.10;;;25.20;;
68938;SDS011;59064;45.294;11.816;2024-02-21T06:28:37;39.80;;;24.70;;
68938;SDS011;59064;45.294;11.816;2024-02-21T06:31:03;37.80;;;23.40;;
68938;SDS011;59064;45.294;11.816;2024-02-21T06:33:28;38.60;;;23.10;;
68938;SDS011;59064;45.294;11.816;2024-02-21T06:35:54;36.60;;;23.20;;
68938;SDS011;59064;45.294;11.816;2024-02-21T06:38:20;40.00;;;23.80;;
68938;SDS011;59064;45.294;11.816;2024-02-21T06:40:45;37.50;;;22.10;;
68938;SDS011;59064;45.294;11.816;2024-02-21T06:43:17;35.50;;;21.00;;
68938;SDS011;59064;45.294;11.816;2024-02-21T06:45:45;37.70;;;21.30;;
68938;SDS011;59064;45.294;11.816;2024-02-21T06:48:16;38.00;;;21.40;;
68938;SDS011;59064;45.294;11.816;2024-02-21T06:50:43;38.00;;;22.90;;
68938;SDS011;59064;45.294;11.816;2024-02-21T06:53:08;35.00;;;21.20;;
68938;SDS011;59064;45.294;11.816;2024-02-21T06:55:34;33.40;;;20.90;;
68938;SDS011;59064;45.294;11.816;2024-02-21T06:57:59;32.30;;;19.60;;
68938;SDS011;59064;45.294;11.816;2024-02-21T07:00:25;33.20;;;19.50;;
68938;SDS011;59064;45.294;11.816;2024-02-21T07:02:51;37.00;;;22.60;;
68938;SDS011;59064;45.294;11.816;2024-02-21T07:05:16;34.70;;;21.70;;
68938;SDS011;59064;45.294;11.816;2024-02-21T07:07:42;33.40;;;21.30;;
68938;SDS011;59064;45.294;11.816;2024-02-21T07:10:07;37.80;;;21.10;;
68938;SDS011;59064;45.294;11.816;2024-02-21T07:12:33;33.30;;;20.70;;
68938;SDS011;59064;45.294;11.816;2024-02-21T07:15:00;29.30;;;18.10;;
68938;SDS011;59064;45.294;11.816;2024-02-21T07:17:26;32.60;;;19.70;;
68938;SDS011;59064;45.294;11.816;2024-02-21T07:19:51;33.20;;;18.90;;
68938;SDS011;59064;45.294;11.816;2024-02-21T07:22:17;28.30;;;17.10;;
68938;SDS011;59064;45.294;11.816;2024-02-21T07:27:17;27.00;;;15.90;;
68938;SDS011;59064;45.294;11.816;2024-02-21T07:29:42;25.20;;;14.50;;
68938;SDS011;59064;45.294;11.816;2024-02-21T07:32:12;35.50;;;20.40;;
68938;SDS011;59064;45.294;11.816;2024-02-21T07:34:38;56.20;;;28.10;;
68938;SDS011;59064;45.294;11.816;2024-02-21T07:37:03;45.60;;;24.30;;
68938;SDS011;59064;45.294;11.816;2024-02-21T07:39:29;36.40;;;19.60;;
68938;SDS011;59064;45.294;11.816;2024-02-21T07:41:54;31.10;;;20.20;;
68938;SDS011;59064;45.294;11.816;2024-02-21T07:44:20;27.70;;;17.00;;
68938;SDS011;59064;45.294;11.816;2024-02-21T07:46:45;27.10;;;17.70;;
68938;SDS011;59064;45.294;11.816;2024-02-21T07:49:10;23.70;;;15.80;;
68938;SDS011;59064;45.294;11.816;2024-02-21T07:51:36;24.60;;;14.70;;
68938;SDS011;59064;45.294;11.816;2024-02-21T07:54:02;20.30;;;13.40;;
68938;SDS011;59064;45.294;11.816;2024-02-21T07:56:29;22.50;;;13.60;;
68938;SDS011;59064;45.294;11.816;2024-02-21T07:58:55;20.90;;;12.40;;
68938;SDS011;59064;45.294;11.816;2024-02-21T08:01:20;19.60;;;13.20;;
68938;SDS011;59064;45.294;11.816;2024-02-21T08:03:46;21.90;;;13.20;;
68938;SDS011;59064;45.294;11.816;2024-02-21T08:06:12;22.40;;;13.40;;
68938;SDS011;59064;45.294;11.816;2024-02-21T08:08:39;21.30;;;14.10;;
68938;SDS011;59064;45.294;11.816;2024-02-21T08:11:04;21.40;;;14.20;;
68938;SDS011;59064;45.294;11.816;2024-02-21T08:13:30;23.90;;;14.40;;
68938;SDS011;59064;45.294;11.816;2024-02-21T08:15:57;20.90;;;14.00;;
68938;SDS011;59064;45.294;11.816;2024-02-21T08:18:23;21.40;;;12.90;;
68938;SDS011;59064;45.294;11.816;2024-02-21T08:20:48;20.80;;;12.40;;
68938;SDS011;59064;45.294;11.816;2024-02-21T08:23:15;18.20;;;10.80;;
68938;SDS011;59064;45.294;11.816;2024-02-21T08:25:42;16.10;;;10.40;;
68938;SDS011;59064;45.294;11.816;2024-02-21T08:28:08;17.50;;;10.90;;
68938;SDS011;59064;45.294;11.816;2024-02-21T08:30:33;18.90;;;11.20;;
68938;SDS011;59064;45.294;11.816;2024-02-21T08:32:59;18.50;;;10.60;;
68938;SDS011;59064;45.294;11.816;2024-02-21T08:35:25;20.30;;;12.10;;
68938;SDS011;59064;45.294;11.816;2024-02-21T08:37:50;17.10;;;9.70;;
68938;SDS011;59064;45.294;11.816;2024-02-21T08:40:16;18.40;;;12.30;;
68938;SDS011;59064;45.294;11.816;2024-02-21T08:42:46;20.30;;;11.30;;
68938;SDS011;59064;45.294;11.816;2024-02-21T08:45:12;20.60;;;12.60;;
68938;SDS011;59064;45.294;11.816;2024-02-21T08:47:41;25.20;;;15.60;;
68938;SDS011;59064;45.294;11.816;2024-02-21T08:50:07;25.30;;;16.30;;
68938;SDS011;59064;45.294;11.816;2024-02-21T08:52:35;30.70;;;18.90;;
68938;SDS011;59064;45.294;11.816;2024-02-21T08:55:00;30.40;;;18.40;;
68938;SDS011;59064;45.294;11.816;2024-02-21T08:57:27;29.30;;;19.60;;
68938;SDS011;59064;45.294;11.816;2024-02-21T08:59:53;26.20;;;16.60;;
68938;SDS011;59064;45.294;11.816;2024-02-21T09:02:18;25.90;;;15.70;;
68938;SDS011;59064;45.294;11.816;2024-02-21T09:04:44;37.40;;;20.00;;
68938;SDS011;59064;45.294;11.816;2024-02-21T09:07:10;42.80;;;22.10;;
68938;SDS011;59064;45.294;11.816;2024-02-21T09:09:36;37.20;;;22.00;;
68938;SDS011;59064;45.294;11.816;2024-02-21T09:12:04;28.20;;;17.10;;
68938;SDS011;59064;45.294;11.816;2024-02-21T09:14:33;21.70;;;14.40;;
68938;SDS011;59064;45.294;11.816;2024-02-21T09:16:59;22.90;;;15.90;;
68938;SDS011;59064;45.294;11.816;2024-02-21T09:19:25;21.80;;;14.80;;
68938;SDS011;59064;45.294;11.816;2024-02-21T09:21:50;20.00;;;12.30;;
68938;SDS011;59064;45.294;11.816;2024-02-21T09:24:17;19.30;;;13.60;;
68938;SDS011;59064;45.294;11.816;2024-02-21T09:26:43;19.50;;;12.20;;
68938;SDS011;59064;45.294;11.816;2024-02-21T09:29:09;15.00;;;10.50;;
68938;SDS011;59064;45.294;11.816;2024-02-21T09:31:34;15.90;;;10.80;;
68938;SDS011;59064;45.294;11.816;2024-02-21T09:34:00;13.80;;;9.00;;
68938;SDS011;59064;45.294;11.816;2024-02-21T09:36:26;12.50;;;8.10;;
68938;SDS011;59064;45.294;11.816;2024-02-21T09:38:52;15.60;;;9.90;;
68938;SDS011;59064;45.294;11.816;2024-02-21T09:41:26;14.50;;;8.80;;
68938;SDS011;59064;45.294;11.816;2024-02-21T09:43:52;15.60;;;10.30;;
68938;SDS011;59064;45.294;11.816;2024-02-21T09:46:19;10.80;;;7.80;;
68938;SDS011;59064;45.294;11.816;2024-02-21T09:51:30;13.40;;;8.60;;
68938;SDS011;59064;45.294;11.816;2024-02-21T09:53:58;11.40;;;7.50;;
68938;SDS011;59064;45.294;11.816;2024-02-21T09:56:24;14.20;;;9.20;;
68938;SDS011;59064;45.294;11.816;2024-02-21T09:58:50;13.90;;;9.30;;
68938;SDS011;59064;45.294;11.816;2024-02-21T10:01:15;12.10;;;8.90;;
68938;SDS011;59064;45.294;11.816;2024-02-21T10:03:41;11.60;;;8.60;;
68938;SDS011;59064;45.294;11.816;2024-02-21T10:06:08;13.80;;;8.50;;
68938;SDS011;59064;45.294;11.816;2024-02-21T10:08:34;16.50;;;9.50;;
68938;SDS011;59064;45.294;11.816;2024-02-21T10:10:59;14.50;;;9.80;;
68938;SDS011;59064;45.294;11.816;2024-02-21T10:13:27;14.20;;;9.10;;
68938;SDS011;59064;45.294;11.816;2024-02-21T10:16:00;11.80;;;7.90;;
68938;SDS011;59064;45.294;11.816;2024-02-21T10:18:29;12.80;;;8.40;;
68938;SDS011;59064;45.294;11.816;2024-02-21T10:23:48;11.60;;;7.20;;
68938;SDS011;59064;45.294;11.816;2024-02-21T10:26:14;11.40;;;6.80;;
68938;SDS011;59064;45.294;11.816;2024-02-21T10:28:44;13.20;;;8.10;;
68938;SDS011;59064;45.294;11.816;2024-02-21T10:31:20;12.00;;;7.30;;
68938;SDS011;59064;45.294;11.816;2024-02-21T10:34:12;14.00;;;8.80;;
68938;SDS011;59064;45.294;11.816;2024-02-21T10:36:44;13.40;;;9.40;;
68938;SDS011;59064;45.294;11.816;2024-02-21T10:39:10;13.60;;;8.70;;
68938;SDS011;59064;45.294;11.816;2024-02-21T10:41:35;12.00;;;8.20;;
68938;SDS011;59064;45.294;11.816;2024-02-21T10:44:02;12.10;;;7.70;;
68938;SDS011;59064;45.294;11.816;2024-02-21T10:46:30;12.00;;;8.20;;
68938;SDS011;59064;45.294;11.816;2024-02-21T10:49:08;13.10;;;8.20;;
68938;SDS011;59064;45.294;11.816;2024-02-21T10:51:36;13.10;;;8.10;;
68938;SDS011;59064;45.294;11.816;2024-02-21T10:57:10;12.30;;;8.30;;
68938;SDS011;59064;45.294;11.816;2024-02-21T10:59:37;12.00;;;8.50;;
68938;SDS011;59064;45.294;11.816;2024-02-21T11:02:03;13.40;;;8.30;;
68938;SDS011;59064;45.294;11.816;2024-02-21T11:04:28;12.00;;;8.10;;
68938;SDS011;59064;45.294;11.816;2024-02-21T11:06:56;11.80;;;8.20;;
68938;SDS011;59064;45.294;11.816;2024-02-21T11:09:29;12.10;;;8.80;;
68938;SDS011;59064;45.294;11.816;2024-02-21T11:12:01;9.90;;;7.30;;
68938;SDS011;59064;45.294;11.816;2024-02-21T11:14:28;9.60;;;7.00;;
68938;SDS011;59064;45.294;11.816;2024-02-21T11:16:57;11.30;;;6.50;;
68938;SDS011;59064;45.294;11.816;2024-02-21T11:19:26;10.50;;;7.70;;
68938;SDS011;59064;45.294;11.816;2024-02-21T11:21:54;11.90;;;8.40;;
68938;SDS011;59064;45.294;11.816;2024-02-21T11:24:27;12.10;;;8.60;;
68938;SDS011;59064;45.294;11.816;2024-02-21T11:26:54;13.40;;;8.40;;
68938;SDS011;59064;45.294;11.816;2024-02-21T11:29:23;10.40;;;7.30;;
68938;SDS011;59064;45.294;11.816;2024-02-21T11:31:53;11.70;;;7.60;;
68938;SDS011;59064;45.294;11.816;2024-02-21T11:34:20;13.20;;;9.20;;
68938;SDS011;59064;45.294;11.816;2024-02-21T11:36:46;10.60;;;6.80;;
68938;SDS011;59064;45.294;11.816;2024-02-21T11:39:17;12.50;;;8.60;;
68938;SDS011;59064;45.294;11.816;2024-02-21T11:42:03;10.90;;;8.20;;
68938;SDS011;59064;45.294;11.816;2024-02-21T11:44:31;13.10;;;8.90;;
68938;SDS011;59064;45.294;11.816;2024-02-21T11:46:57;13.90;;;10.20;;
68938;SDS011;59064;45.294;11.816;2024-02-21T11:49:28;15.00;;;11.10;;
68938;SDS011;59064;45.294;11.816;2024-02-21T11:52:00;17.40;;;11.80;;
68938;SDS011;59064;45.294;11.816;2024-02-21T11:54:27;16.00;;;11.30;;
68938;SDS011;59064;45.294;11.816;2024-02-21T11:56:53;16.70;;;10.70;;
68938;SDS011;59064;45.294;11.816;2024-02-21T11:59:18;15.70;;;10.90;;
68938;SDS011;59064;45.294;11.816;2024-02-21T12:01:44;12.40;;;9.60;;
68938;SDS011;59064;45.294;11.816;2024-02-21T12:04:10;14.10;;;10.60;;
68938;SDS011;59064;45.294;11.816;2024-02-21T12:06:35;14.60;;;10.20;;
68938;SDS011;59064;45.294;11.816;2024-02-21T12:09:01;14.90;;;11.10;;
68938;SDS011;59064;45.294;11.816;2024-02-21T12:11:26;14.20;;;9.70;;
68938;SDS011;59064;45.294;11.816;2024-02-21T12:14:02;15.70;;;11.20;;
68938;SDS011;59064;45.294;11.816;2024-02-21T12:16:30;16.00;;;11.40;;
68938;SDS011;59064;45.294;11.816;2024-02-21T12:18:56;16.20;;;11.50;;
68938;SDS011;59064;45.294;11.816;2024-02-21T12:21:32;17.60;;;12.10;;
68938;SDS011;59064;45.294;11.816;2024-02-21T12:24:11;15.30;;;10.90;;
68938;SDS011;59064;45.294;11.816;2024-02-21T12:26:38;15.60;;;10.20;;
68938;SDS011;59064;45.294;11.816;2024-02-21T12:29:03;14.30;;;10.00;;
68938;SDS011;59064;45.294;11.816;2024-02-21T12:31:29;15.30;;;10.60;;
68938;SDS011;59064;45.294;11.816;2024-02-21T12:33:55;14.70;;;10.60;;
68938;SDS011;59064;45.294;11.816;2024-02-21T12:36:24;16.00;;;11.20;;
68938;SDS011;59064;45.294;11.816;2024-02-21T12:38:49;16.10;;;11.30;;
68938;SDS011;59064;45.294;11.816;2024-02-21T12:41:15;18.20;;;12.30;;
68938;SDS011;59064;45.294;11.816;2024-02-21T12:43:40;18.90;;;13.40;;
68938;SDS011;59064;45.294;11.816;2024-02-21T12:46:06;19.50;;;14.30;;
68938;SDS011;59064;45.294;11.816;2024-02-21T12:48:34;23.10;;;13.50;;
68938;SDS011;59064;45.294;11.816;2024-02-21T12:51:00;19.30;;;13.20;;
68938;SDS011;59064;45.294;11.816;2024-02-21T12:53:25;19.50;;;13.50;;
68938;SDS011;59064;45.294;11.816;2024-02-21T12:55:51;20.10;;;14.00;;
68938;SDS011;59064;45.294;11.816;2024-02-21T12:58:17;18.60;;;13.10;;
68938;SDS011;59064;45.294;11.816;2024-02-21T13:00:42;18.20;;;13.40;;
68938;SDS011;59064;45.294;11.816;2024-02-21T13:03:08;19.80;;;14.40;;
68938;SDS011;59064;45.294;11.816;2024-02-21T13:05:35;18.70;;;13.20;;
68938;SDS011;59064;45.294;11.816;2024-02-21T13:08:01;16.10;;;12.00;;
68938;SDS011;59064;45.294;11.816;2024-02-21T13:10:27;19.00;;;12.90;;
68938;SDS011;59064;45.294;11.816;2024-02-21T13:12:53;18.20;;;13.30;;
68938;SDS011;59064;45.294;11.816;2024-02-21T13:15:19;16.20;;;11.40;;
68938;SDS011;59064;45.294;11.816;2024-02-21T13:17:45;18.40;;;12.60;;
68938;SDS011;59064;45.294;11.816;2024-02-21T13:20:10;16.00;;;11.30;;
68938;SDS011;59064;45.294;11.816;2024-02-21T13:22:36;16.20;;;11.30;;
68938;SDS011;59064;45.294;11.816;2024-02-21T13:25:03;18.70;;;13.00;;
68938;SDS011;59064;45.294;11.816;2024-02-21T13:27:30;18.70;;;12.40;;
68938;SDS011;59064;45.294;11.816;2024-02-21T13:29:55;17.70;;;12.30;;
68938;SDS011;59064;45.294;11.816;2024-02-21T13:32:21;16.00;;;11.10;;
68938;SDS011;59064;45.294;11.816;2024-02-21T13:34:46;16.00;;;10.90;;
68938;SDS011;59064;45.294;11.816;2024-02-21T13:37:12;15.90;;;11.70;;
68938;SDS011;59064;45.294;11.816;2024-02-21T13:39:39;15.90;;;11.50;;
68938;SDS011;59064;45.294;11.816;2024-02-21T13:42:04;15.80;;;11.70;;
68938;SDS011;59064;45.294;11.816;2024-02-21T13:44:31;15.30;;;10.90;;
68938;SDS011;59064;45.294;11.816;2024-02-21T13:46:57;16.00;;;11.80;;
68938;SDS011;59064;45.294;11.816;2024-02-21T13:49:23;16.00;;;11.40;;
68938;SDS011;59064;45.294;11.816;2024-02-21T13:51:49;15.30;;;11.40;;
68938;SDS011;59064;45.294;11.816;2024-02-21T13:54:15;15.90;;;11.20;;
68938;SDS011;59064;45.294;11.816;2024-02-21T13:56:47;14.50;;;10.30;;
68938;SDS011;59064;45.294;11.816;2024-02-21T13:59:13;14.70;;;10.80;;
68938;SDS011;59064;45.294;11.816;2024-02-21T14:01:38;14.90;;;10.70;;
68938;SDS011;59064;45.294;11.816;2024-02-21T14:04:04;14.40;;;9.70;;
68938;SDS011;59064;45.294;11.816;2024-02-21T14:06:30;13.90;;;9.50;;
68938;SDS011;59064;45.294;11.816;2024-02-21T14:08:56;15.60;;;9.70;;
68938;SDS011;59064;45.294;11.816;2024-02-21T14:11:22;13.40;;;9.50;;
68938;SDS011;59064;45.294;11.816;2024-02-21T14:13:48;14.90;;;9.80;;
68938;SDS011;59064;45.294;11.816;2024-02-21T14:16:13;12.40;;;9.00;;
68938;SDS011;59064;45.294;11.816;2024-02-21T14:18:42;12.90;;;8.10;;
68938;SDS011;59064;45.294;11.816;2024-02-21T14:21:09;13.90;;;9.40;;